createdAt,value
2018-06-15T00:00:08.592Z,15.80
2018-06-15T00:02:37.671Z,15.90
2018-06-15T00:05:06.543Z,16.00
2018-06-15T00:07:35.351Z,16.00
2018-06-15T00:10:04.271Z,16.10
2018-06-15T00:12:33.120Z,16.10
2018-06-15T00:15:01.914Z,16.10
2018-06-15T00:17:30.729Z,16.20
2018-06-15T00:19:59.554Z,16.20
2018-06-15T00:22:28.363Z,16.30
2018-06-15T00:24:57.271Z,16.30
2018-06-15T00:27:26.093Z,16.40
2018-06-15T00:29:54.884Z,16.40
2018-06-15T00:32:23.695Z,16.30
2018-06-15T00:34:52.494Z,16.30
2018-06-15T00:37:21.307Z,16.30
2018-06-15T00:39:50.111Z,16.20
2018-06-15T00:42:18.936Z,16.10
2018-06-15T00:44:47.754Z,15.90
2018-06-15T00:47:16.571Z,15.80
2018-06-15T00:49:45.372Z,15.70
2018-06-15T00:52:14.193Z,15.60
2018-06-15T00:54:43.016Z,15.50
2018-06-15T00:57:23.516Z,15.50
2018-06-15T00:59:52.332Z,15.40
2018-06-15T01:02:21.149Z,15.40
2018-06-15T01:04:49.955Z,15.30
2018-06-15T01:07:19.632Z,15.30
2018-06-15T01:09:48.436Z,15.30
2018-06-15T01:12:17.268Z,15.30
2018-06-15T01:14:46.076Z,15.30
2018-06-15T01:17:14.890Z,15.40
2018-06-15T01:19:43.703Z,15.40
2018-06-15T01:22:12.614Z,15.40
2018-06-15T01:24:41.435Z,15.40
2018-06-15T01:27:10.302Z,15.40
2018-06-15T01:29:39.113Z,15.40
2018-06-15T01:34:36.431Z,15.40
2018-06-15T01:37:05.259Z,15.40
2018-06-15T01:39:34.081Z,15.40
2018-06-15T01:42:02.920Z,15.50
2018-06-15T01:44:31.751Z,15.50
2018-06-15T01:49:29.144Z,15.60
2018-06-15T01:51:57.968Z,15.60
2018-06-15T01:54:26.772Z,15.60
2018-06-15T01:56:55.585Z,15.70
2018-06-15T01:59:24.407Z,15.80
2018-06-15T02:01:53.222Z,15.80
2018-06-15T02:04:22.019Z,15.80
2018-06-15T02:06:50.832Z,15.90
2018-06-15T02:09:19.655Z,15.90
2018-06-15T02:11:48.533Z,15.90
2018-06-15T02:14:17.354Z,15.90
2018-06-15T02:16:46.231Z,16.00
2018-06-15T02:19:15.035Z,16.00
2018-06-15T02:21:43.825Z,16.00
2018-06-15T02:24:12.650Z,16.10
2018-06-15T02:26:41.452Z,16.10
2018-06-15T02:29:10.255Z,16.10
2018-06-15T02:31:39.065Z,16.10
2018-06-15T02:34:07.882Z,16.10
2018-06-15T02:36:36.666Z,16.10
2018-06-15T02:39:07.705Z,16.20
2018-06-15T02:41:36.505Z,16.10
2018-06-15T02:44:05.337Z,16.10
2018-06-15T02:46:34.116Z,16.20
2018-06-15T02:49:02.927Z,16.10
2018-06-15T02:51:31.754Z,16.10
2018-06-15T02:54:00.560Z,16.00
2018-06-15T02:56:29.343Z,16.00
2018-06-15T02:58:58.397Z,16.00
2018-06-15T03:01:27.468Z,16.00
2018-06-15T03:03:56.575Z,16.00
2018-06-15T03:06:25.769Z,16.10
2018-06-15T03:08:54.647Z,16.10
2018-06-15T03:11:23.446Z,16.10
2018-06-15T03:13:52.257Z,16.20
2018-06-15T03:16:21.068Z,16.20
2018-06-15T03:18:49.871Z,16.20
2018-06-15T03:23:47.258Z,16.20
2018-06-15T03:26:16.050Z,16.20
2018-06-15T03:28:44.853Z,16.30
2018-06-15T03:31:13.657Z,16.30
2018-06-15T03:33:42.484Z,16.30
2018-06-15T03:36:11.283Z,16.30
2018-06-15T03:38:40.065Z,16.30
2018-06-15T03:41:08.896Z,16.40
2018-06-15T03:43:37.679Z,16.40
2018-06-15T03:46:06.503Z,16.40
2018-06-15T03:48:35.306Z,16.50
2018-06-15T03:51:04.094Z,16.50
2018-06-15T03:53:32.885Z,16.50
2018-06-15T03:56:01.689Z,16.50
2018-06-15T03:58:30.477Z,16.60
2018-06-15T04:00:59.274Z,16.60
2018-06-15T04:03:28.075Z,16.60
2018-06-15T04:05:57.211Z,16.60
2018-06-15T04:08:25.970Z,16.70
2018-06-15T04:10:54.787Z,16.70
2018-06-15T04:13:23.595Z,16.70
2018-06-15T04:15:52.428Z,16.70
2018-06-15T04:18:21.309Z,16.70
2018-06-15T04:20:50.236Z,16.60
2018-06-15T04:23:19.038Z,16.50
2018-06-15T04:25:47.847Z,16.40
2018-06-15T04:28:16.640Z,16.40
2018-06-15T04:30:45.421Z,16.40
2018-06-15T04:33:14.205Z,16.40
2018-06-15T04:35:43.005Z,16.40
2018-06-15T04:38:11.785Z,16.30
2018-06-15T04:40:40.591Z,16.40
2018-06-15T04:43:09.373Z,16.50
2018-06-15T04:45:38.179Z,16.50
2018-06-15T04:48:07.157Z,16.50
2018-06-15T04:50:35.959Z,16.50
2018-06-15T04:53:05.057Z,16.60
2018-06-15T04:55:34.046Z,16.60
2018-06-15T04:58:02.878Z,16.50
2018-06-15T05:00:31.692Z,16.50
2018-06-15T05:03:00.478Z,16.50
2018-06-15T05:05:29.303Z,16.60
2018-06-15T05:07:58.085Z,16.70
2018-06-15T05:10:26.870Z,16.70
2018-06-15T05:12:55.683Z,16.80
2018-06-15T05:15:24.488Z,16.80
2018-06-15T05:17:53.288Z,16.90
2018-06-15T05:22:50.692Z,17.00
2018-06-15T05:25:19.485Z,17.00
2018-06-15T05:27:48.286Z,17.00
2018-06-15T05:30:17.113Z,17.00
2018-06-15T05:32:45.916Z,16.90
2018-06-15T05:35:14.726Z,16.90
2018-06-15T05:37:43.537Z,16.90
2018-06-15T05:40:12.421Z,16.90
2018-06-15T05:42:41.269Z,17.00
2018-06-15T05:45:10.106Z,17.00
2018-06-15T05:47:38.906Z,17.00
2018-06-15T05:50:07.719Z,17.20
2018-06-15T05:52:36.522Z,17.30
2018-06-15T05:55:05.372Z,17.30
2018-06-15T05:57:34.195Z,17.40
2018-06-15T06:00:03.003Z,17.50
2018-06-15T06:02:31.811Z,17.60
2018-06-15T06:05:00.631Z,17.70
2018-06-15T06:07:29.457Z,17.70
2018-06-15T06:09:58.257Z,17.80
2018-06-15T06:12:27.083Z,17.90
2018-06-15T06:14:55.993Z,17.90
2018-06-15T06:17:24.817Z,18.00
2018-06-15T06:19:53.688Z,17.90
2018-06-15T06:22:22.464Z,17.90
2018-06-15T06:24:51.276Z,17.80
2018-06-15T06:27:20.085Z,17.80
2018-06-15T06:29:48.891Z,17.80
2018-06-15T06:32:17.714Z,17.90
2018-06-15T06:34:46.519Z,17.90
2018-06-15T06:37:15.336Z,18.00
2018-06-15T06:39:44.158Z,18.00
2018-06-15T06:42:13.078Z,18.10
2018-06-15T06:44:41.901Z,18.10
2018-06-15T06:47:10.703Z,18.20
2018-06-15T06:49:39.536Z,18.30
2018-06-15T06:52:08.889Z,18.30
2018-06-15T06:54:37.702Z,18.30
2018-06-15T06:57:06.501Z,18.20
2018-06-15T06:59:35.382Z,18.10
2018-06-15T07:02:04.199Z,18.20
2018-06-15T07:04:33.005Z,18.20
2018-06-15T07:07:01.812Z,18.10
2018-06-15T07:09:30.643Z,18.20
2018-06-15T07:11:59.460Z,18.40
2018-06-15T07:14:28.275Z,18.60
2018-06-15T07:16:57.078Z,18.70
2018-06-15T07:19:25.885Z,18.80
2018-06-15T07:21:54.673Z,18.90
2018-06-15T07:24:23.484Z,18.90
2018-06-15T07:26:52.289Z,18.90
2018-06-15T07:31:49.595Z,18.80
2018-06-15T07:34:18.398Z,18.70
2018-06-15T07:36:47.324Z,18.80
2018-06-15T07:39:16.132Z,18.80
2018-06-15T07:41:45.003Z,18.90
2018-06-15T07:44:13.782Z,19.00
2018-06-15T07:46:42.596Z,19.20
2018-06-15T07:49:11.415Z,19.30
2018-06-15T07:51:40.523Z,19.40
2018-06-15T07:54:09.331Z,19.50
2018-06-15T07:56:38.163Z,19.60
2018-06-15T07:59:07.285Z,19.70
2018-06-15T08:01:36.091Z,19.90
2018-06-15T08:04:07.452Z,20.00
2018-06-15T08:06:36.271Z,20.00
2018-06-15T08:09:07.283Z,20.10
2018-06-15T08:11:36.345Z,20.00
2018-06-15T08:14:05.144Z,20.20
2018-06-15T08:16:33.985Z,20.30
2018-06-15T08:19:02.806Z,20.20
2018-06-15T08:21:31.606Z,20.10
2018-06-15T08:24:00.413Z,20.00
2018-06-15T08:26:29.230Z,19.80
2018-06-15T08:28:58.056Z,19.70
2018-06-15T08:31:26.855Z,19.60
2018-06-15T08:33:55.763Z,19.40
2018-06-15T08:36:24.632Z,19.40
2018-06-15T08:38:53.517Z,19.40
2018-06-15T08:41:22.689Z,19.10
2018-06-15T08:43:51.479Z,19.10
2018-06-15T08:46:20.308Z,19.00
2018-06-15T08:48:49.109Z,19.00
2018-06-15T08:51:17.920Z,19.00
2018-06-15T08:53:46.711Z,19.20
2018-06-15T08:58:44.345Z,19.50
2018-06-15T09:01:13.150Z,19.60
2018-06-15T09:03:41.938Z,19.60
2018-06-15T09:06:11.186Z,19.80
2018-06-15T09:11:08.593Z,20.00
2018-06-15T09:13:37.413Z,20.00
2018-06-15T09:16:06.219Z,20.00
2018-06-15T09:18:35.078Z,19.90
2018-06-15T09:21:03.888Z,19.80
2018-06-15T09:23:32.674Z,19.50
2018-06-15T09:26:01.495Z,19.20
2018-06-15T09:28:30.294Z,19.10
2018-06-15T09:30:59.094Z,19.00
2018-06-15T09:33:27.903Z,19.10
2018-06-15T09:35:56.805Z,19.10
2018-06-15T09:40:54.143Z,19.40
2018-06-15T09:43:22.995Z,19.30
2018-06-15T09:45:51.797Z,19.40
2018-06-15T09:48:20.788Z,19.40
2018-06-15T09:50:49.594Z,19.40
2018-06-15T09:53:18.399Z,19.40
2018-06-15T09:55:47.194Z,19.40
2018-06-15T09:58:15.995Z,19.40
2018-06-15T10:00:49.971Z,19.60
2018-06-15T10:03:18.787Z,19.80
2018-06-15T10:05:47.590Z,19.90
2018-06-15T10:08:16.720Z,20.00
2018-06-15T10:10:45.530Z,20.00
2018-06-15T10:13:14.365Z,20.20
2018-06-15T10:15:43.158Z,20.40
2018-06-15T10:18:12.005Z,20.60
2018-06-15T10:20:40.844Z,20.50
2018-06-15T10:23:09.639Z,20.50
2018-06-15T10:25:38.429Z,20.40
2018-06-15T10:28:07.277Z,20.40
2018-06-15T10:30:36.057Z,20.40
2018-06-15T10:33:04.869Z,20.30
2018-06-15T10:35:33.672Z,20.10
2018-06-15T10:38:02.529Z,20.00
2018-06-15T10:40:31.291Z,19.90
2018-06-15T10:43:00.210Z,19.60
2018-06-15T10:45:28.975Z,19.60
2018-06-15T10:47:57.787Z,19.40
2018-06-15T10:50:26.629Z,19.30
2018-06-15T10:52:55.837Z,19.30
2018-06-15T10:55:24.979Z,19.30
2018-06-15T10:57:54.127Z,19.20
2018-06-15T11:00:23.002Z,19.30
2018-06-15T11:02:51.892Z,19.30
2018-06-15T11:05:21.248Z,19.40
2018-06-15T11:07:50.066Z,19.40
2018-06-15T11:10:18.891Z,19.50
2018-06-15T11:12:47.677Z,19.60
2018-06-15T11:15:16.482Z,19.80
2018-06-15T11:17:45.315Z,19.90
2018-06-15T11:20:14.180Z,20.00
2018-06-15T11:22:42.961Z,20.10
2018-06-15T11:25:11.799Z,20.10
2018-06-15T11:27:40.632Z,20.00
2018-06-15T11:30:09.417Z,19.90
2018-06-15T11:32:38.221Z,20.00
2018-06-15T11:35:07.019Z,20.20
2018-06-15T11:37:35.821Z,20.50
2018-06-15T11:40:04.665Z,20.90
2018-06-15T11:42:33.466Z,21.20
2018-06-15T11:45:02.408Z,21.40
2018-06-15T11:47:31.191Z,21.50
2018-06-15T11:50:00.041Z,21.80
2018-06-15T11:52:28.879Z,22.10
2018-06-15T11:54:57.765Z,22.30
2018-06-15T11:57:26.892Z,22.40
2018-06-15T11:59:55.660Z,22.80
2018-06-15T12:02:24.455Z,23.10
2018-06-15T12:04:53.259Z,23.50
2018-06-15T12:07:22.060Z,23.80
2018-06-15T12:09:50.880Z,23.90
2018-06-15T12:12:19.678Z,24.30
2018-06-15T12:14:48.601Z,24.40
2018-06-15T12:17:17.398Z,24.50
2018-06-15T12:19:46.212Z,24.60
2018-06-15T12:22:14.996Z,24.60
2018-06-15T12:27:12.411Z,24.60
2018-06-15T12:29:41.209Z,24.70
2018-06-15T12:32:10.114Z,24.80
2018-06-15T12:34:38.954Z,24.90
2018-06-15T12:37:07.749Z,24.70
2018-06-15T12:42:05.121Z,24.20
2018-06-15T12:44:34.020Z,23.80
2018-06-15T12:47:03.018Z,23.40
2018-06-15T12:49:31.819Z,23.40
2018-06-15T12:52:00.644Z,23.60
2018-06-15T12:54:29.441Z,23.90
2018-06-15T12:56:58.290Z,24.00
2018-06-15T13:01:55.614Z,23.40
2018-06-15T13:04:24.406Z,22.80
2018-06-15T13:09:21.702Z,22.20
2018-06-15T13:11:50.589Z,21.90
2018-06-15T13:14:19.397Z,22.00
2018-06-15T13:16:48.232Z,22.20
2018-06-15T13:19:17.183Z,22.10
2018-06-15T13:21:46.160Z,22.20
2018-06-15T13:24:15.036Z,22.20
2018-06-15T13:26:43.851Z,22.40
2018-06-15T13:29:12.658Z,22.40
2018-06-15T13:31:41.466Z,22.50
2018-06-15T13:34:10.271Z,22.70
2018-06-15T13:36:39.080Z,22.90
2018-06-15T13:39:09.713Z,23.20
2018-06-15T13:41:38.532Z,23.40
2018-06-15T13:44:07.326Z,23.70
2018-06-15T13:46:36.193Z,23.90
2018-06-15T13:49:05.207Z,24.10
2018-06-15T13:51:34.052Z,24.10
2018-06-15T13:54:02.983Z,24.10
2018-06-15T13:56:31.781Z,24.00
2018-06-15T13:59:00.588Z,24.00
2018-06-15T14:01:29.401Z,24.10
2018-06-15T14:03:58.199Z,24.20
2018-06-15T14:06:27.156Z,24.50
2018-06-15T14:08:55.968Z,24.70
2018-06-15T14:11:24.766Z,24.70
2018-06-15T14:13:53.750Z,24.70
2018-06-15T14:16:22.647Z,24.70
2018-06-15T14:18:51.483Z,24.80
2018-06-15T14:21:20.251Z,24.90
2018-06-15T14:23:49.056Z,25.00
2018-06-15T14:26:17.859Z,25.10
2018-06-15T14:28:46.677Z,25.20
2018-06-15T14:31:15.506Z,24.90
2018-06-15T14:33:44.311Z,24.40
2018-06-15T14:36:13.094Z,24.30
2018-06-15T14:38:41.914Z,24.20
2018-06-15T14:43:39.252Z,23.80
2018-06-15T14:46:08.368Z,23.60
2018-06-15T14:48:37.152Z,23.50
2018-06-15T14:51:05.942Z,23.50
2018-06-15T14:53:35.036Z,23.40
2018-06-15T14:56:04.432Z,23.40
2018-06-15T14:58:33.306Z,23.20
2018-06-15T15:01:02.152Z,23.30
2018-06-15T15:03:30.971Z,23.60
2018-06-15T15:05:59.765Z,23.90
2018-06-15T15:08:28.651Z,24.10
2018-06-15T15:10:57.425Z,24.40
2018-06-15T15:13:26.248Z,24.40
2018-06-15T15:15:55.034Z,24.40
2018-06-15T15:18:23.904Z,24.30
2018-06-15T15:23:24.296Z,23.70
2018-06-15T15:25:53.453Z,23.60
2018-06-15T15:28:22.773Z,23.60
2018-06-15T15:30:52.150Z,23.10
2018-06-15T15:33:22.325Z,23.00
2018-06-15T15:35:51.119Z,23.00
2018-06-15T15:38:20.251Z,23.20
2018-06-15T15:40:49.352Z,23.50
2018-06-15T15:43:18.173Z,23.50
2018-06-15T15:45:46.985Z,23.50
2018-06-15T15:48:15.911Z,23.50
2018-06-15T15:50:44.698Z,23.50
2018-06-15T15:53:13.478Z,23.40
2018-06-15T15:55:42.293Z,23.50
2018-06-15T15:58:11.092Z,23.50
2018-06-15T16:00:39.963Z,23.60
2018-06-15T16:03:08.735Z,23.60
2018-06-15T16:05:37.640Z,23.70
2018-06-15T16:08:06.537Z,23.60
2018-06-15T16:10:35.329Z,23.60
2018-06-15T16:13:04.148Z,23.70
2018-06-15T16:15:32.978Z,23.70
2018-06-15T16:18:01.763Z,23.60
2018-06-15T16:20:30.568Z,23.20
2018-06-15T16:22:59.366Z,23.00
2018-06-15T16:25:28.176Z,22.80
2018-06-15T16:27:56.971Z,22.60
2018-06-15T16:30:25.784Z,22.50
2018-06-15T16:32:54.578Z,22.40
2018-06-15T16:35:23.406Z,22.20
2018-06-15T16:37:52.229Z,21.90
2018-06-15T16:40:21.343Z,21.70
2018-06-15T16:42:50.125Z,21.50
2018-06-15T16:45:19.033Z,21.50
2018-06-15T16:47:47.823Z,21.30
2018-06-15T16:50:16.625Z,21.40
2018-06-15T16:52:45.432Z,21.50
2018-06-15T16:55:14.227Z,21.70
2018-06-15T16:57:43.024Z,21.80
2018-06-15T17:00:11.831Z,22.00
2018-06-15T17:02:40.672Z,22.30
2018-06-15T17:05:09.466Z,22.50
2018-06-15T17:07:38.249Z,22.50
2018-06-15T17:10:07.070Z,22.50
2018-06-15T17:12:35.866Z,22.50
2018-06-15T17:15:04.729Z,22.40
2018-06-15T17:17:33.555Z,22.40
2018-06-15T17:20:02.337Z,22.30
2018-06-15T17:22:31.438Z,22.20
2018-06-15T17:25:00.250Z,22.30
2018-06-15T17:27:29.047Z,22.30
2018-06-15T17:29:57.887Z,22.30
2018-06-15T17:32:26.706Z,22.20
2018-06-15T17:34:55.522Z,22.20
2018-06-15T17:37:24.292Z,22.10
2018-06-15T17:39:53.609Z,22.10
2018-06-15T17:42:22.455Z,22.00
2018-06-15T17:44:51.286Z,22.00
2018-06-15T17:47:20.138Z,21.80
2018-06-15T17:49:49.655Z,21.70
2018-06-15T17:52:18.455Z,21.70
2018-06-15T17:54:47.287Z,21.70
2018-06-15T17:57:16.129Z,21.70
2018-06-15T17:59:44.963Z,21.50
2018-06-15T18:02:14.068Z,21.50
2018-06-15T18:04:43.411Z,21.50
2018-06-15T18:07:12.209Z,21.40
2018-06-15T18:09:41.021Z,21.30
2018-06-15T18:12:09.834Z,21.20
2018-06-15T18:14:38.618Z,21.10
2018-06-15T18:17:07.430Z,21.00
2018-06-15T18:19:36.218Z,20.90
2018-06-15T18:22:05.131Z,20.90
2018-06-15T18:24:33.951Z,20.80
2018-06-15T18:27:02.776Z,20.80
2018-06-15T18:29:31.584Z,20.80
2018-06-15T18:32:00.385Z,20.70
2018-06-15T18:34:29.186Z,20.60
2018-06-15T18:36:57.974Z,20.60
2018-06-15T18:39:26.864Z,20.60
2018-06-15T18:41:55.648Z,20.70
2018-06-15T18:44:24.598Z,20.70
2018-06-15T18:46:53.402Z,20.70
2018-06-15T18:49:22.259Z,20.70
2018-06-15T18:51:51.109Z,20.70
2018-06-15T18:54:19.940Z,20.60
2018-06-15T18:56:48.787Z,20.60
2018-06-15T18:59:17.615Z,20.50
2018-06-15T19:01:46.417Z,20.40
2018-06-15T19:04:15.216Z,20.50
2018-06-15T19:06:43.997Z,20.50
2018-06-15T19:09:12.847Z,20.40
2018-06-15T19:11:41.631Z,20.30
2018-06-15T19:14:10.447Z,20.20
2018-06-15T19:16:39.282Z,20.10
2018-06-15T19:19:08.059Z,20.00
2018-06-15T19:21:36.892Z,19.90
2018-06-15T19:24:05.700Z,19.80
2018-06-15T19:26:34.537Z,19.80
2018-06-15T19:29:03.441Z,19.70
2018-06-15T19:31:32.211Z,19.60
2018-06-15T19:34:01.355Z,19.50
2018-06-15T19:36:30.169Z,19.30
2018-06-15T19:38:58.972Z,19.20
2018-06-15T19:41:27.778Z,19.10
2018-06-15T19:43:56.697Z,19.00
2018-06-15T19:46:25.499Z,18.80
2018-06-15T19:48:54.330Z,18.70
2018-06-15T19:51:23.135Z,18.60
2018-06-15T19:53:51.925Z,18.50
2018-06-15T19:56:20.717Z,18.40
2018-06-15T19:58:49.530Z,18.40
2018-06-15T20:01:18.329Z,18.30
2018-06-15T20:03:47.125Z,18.20
2018-06-15T20:06:15.935Z,18.10
2018-06-15T20:08:44.778Z,18.10
2018-06-15T20:13:42.067Z,17.80
2018-06-15T20:16:10.881Z,17.80
2018-06-15T20:18:39.701Z,17.80
2018-06-15T20:21:08.538Z,17.70
2018-06-15T20:23:37.371Z,17.60
2018-06-15T20:26:06.328Z,17.50
2018-06-15T20:28:35.430Z,17.50
2018-06-15T20:31:04.279Z,17.40
2018-06-15T20:33:33.165Z,17.40
2018-06-15T20:36:01.988Z,17.30
2018-06-15T20:38:30.777Z,17.30
2018-06-15T20:40:59.592Z,17.30
2018-06-15T20:43:28.397Z,17.20
2018-06-15T20:45:57.185Z,17.20
2018-06-15T20:48:25.977Z,17.10
2018-06-15T20:53:23.362Z,17.00
2018-06-15T20:55:52.177Z,16.90
2018-06-15T20:58:21.018Z,16.90
2018-06-15T21:00:49.812Z,16.90
2018-06-15T21:03:18.988Z,16.80
2018-06-15T21:05:47.781Z,16.70
2018-06-15T21:08:16.584Z,16.70
2018-06-15T21:10:45.391Z,16.60
2018-06-15T21:13:14.236Z,16.50
2018-06-15T21:15:43.030Z,16.50
2018-06-15T21:18:12.089Z,16.50
2018-06-15T21:20:40.895Z,16.40
2018-06-15T21:23:09.691Z,16.50
2018-06-15T21:25:38.497Z,16.50
2018-06-15T21:28:07.319Z,16.50
2018-06-15T21:33:05.250Z,16.50
2018-06-15T21:35:34.095Z,16.60
2018-06-15T21:38:02.910Z,16.60
2018-06-15T21:40:31.751Z,16.60
2018-06-15T21:43:00.566Z,16.60
2018-06-15T21:45:29.381Z,16.60
2018-06-15T21:47:58.291Z,16.60
2018-06-15T21:50:27.153Z,16.60
2018-06-15T21:52:55.911Z,16.60
2018-06-15T21:55:24.724Z,16.70
2018-06-15T21:57:53.529Z,16.70
2018-06-15T22:00:22.332Z,16.80
2018-06-15T22:02:51.139Z,16.80
2018-06-15T22:05:19.926Z,16.90
2018-06-15T22:07:48.734Z,17.00
2018-06-15T22:12:46.359Z,17.20
2018-06-15T22:15:15.150Z,17.30
2018-06-15T22:17:43.983Z,17.40
2018-06-15T22:20:12.756Z,17.50
2018-06-15T22:25:10.043Z,17.60
2018-06-15T22:27:38.839Z,17.60
2018-06-15T22:30:07.845Z,17.60
2018-06-15T22:32:36.659Z,17.70
2018-06-15T22:35:05.495Z,17.70
2018-06-15T22:40:02.864Z,17.70
2018-06-15T22:45:00.286Z,17.70
2018-06-15T22:47:29.097Z,17.70
2018-06-15T22:49:57.911Z,17.70
2018-06-15T22:52:26.718Z,17.70
2018-06-15T22:54:55.530Z,17.70
2018-06-15T22:57:24.341Z,17.80
2018-06-15T22:59:53.132Z,17.80
2018-06-15T23:02:21.943Z,17.80
2018-06-15T23:04:50.738Z,17.80
2018-06-15T23:07:19.595Z,17.80
2018-06-15T23:09:48.381Z,17.90
2018-06-15T23:12:17.215Z,17.80
2018-06-15T23:14:46.054Z,17.80
2018-06-15T23:17:14.844Z,17.90
2018-06-15T23:19:43.668Z,17.80
2018-06-15T23:22:12.467Z,17.80
2018-06-15T23:24:41.310Z,17.80
2018-06-15T23:27:10.111Z,17.80
2018-06-15T23:29:38.913Z,17.80
2018-06-15T23:32:07.700Z,17.80
2018-06-15T23:34:36.515Z,17.80
2018-06-15T23:37:05.335Z,17.80
2018-06-15T23:39:34.137Z,17.70
2018-06-15T23:42:02.935Z,17.70
2018-06-15T23:44:31.741Z,17.70
2018-06-15T23:47:00.549Z,17.60
2018-06-15T23:49:29.351Z,17.60
2018-06-15T23:51:58.255Z,17.60
2018-06-15T23:54:27.058Z,17.60
2018-06-15T23:56:55.888Z,17.60
2018-06-15T23:59:24.722Z,17.60
